sensor_id;sensor_type;location;lat;lon;timestamp;pressure;altitude;pressure_sealevel;temperature;humidity
85268;BME280;75677;52.380;4.876;2024-03-06T00:02:00;101851.38;;;18.46;42.29
85268;BME280;75677;52.380;4.876;2024-03-06T00:04:26;101854.59;;;18.48;42.19
85268;BME280;75677;52.380;4.876;2024-03-06T00:06:51;101864.19;;;18.47;42.42
85268;BME280;75677;52.380;4.876;2024-03-06T00:09:17;101855.41;;;18.49;42.18
85268;BME280;75677;52.380;4.876;2024-03-06T00:11:44;101856.59;;;18.48;42.14
85268;BME280;75677;52.380;4.876;2024-03-06T00:14:09;101863.00;;;18.48;42.06
85268;BME280;75677;52.380;4.876;2024-03-06T00:16:37;101865.38;;;18.46;42.09
85268;BME280;75677;52.380;4.876;2024-03-06T00:19:03;101875.78;;;18.46;42.08
85268;BME280;75677;52.380;4.876;2024-03-06T00:21:28;101876.16;;;18.44;42.19
85268;BME280;75677;52.380;4.876;2024-03-06T00:23:54;101870.97;;;18.46;42.10
85268;BME280;75677;52.380;4.876;2024-03-06T00:26:21;101875.38;;;18.44;41.96
85268;BME280;75677;52.380;4.876;2024-03-06T00:28:46;101874.56;;;18.43;41.98
85268;BME280;75677;52.380;4.876;2024-03-06T00:31:12;101878.97;;;18.44;41.83
85268;BME280;75677;52.380;4.876;2024-03-06T00:33:37;101883.75;;;18.44;41.93
85268;BME280;75677;52.380;4.876;2024-03-06T00:36:03;101874.16;;;18.38;42.01
85268;BME280;75677;52.380;4.876;2024-03-06T00:38:29;101883.75;;;18.44;42.13
85268;BME280;75677;52.380;4.876;2024-03-06T00:40:54;101885.75;;;18.43;41.88
85268;BME280;75677;52.380;4.876;2024-03-06T00:43:20;101884.56;;;18.41;42.06
85268;BME280;75677;52.380;4.876;2024-03-06T00:45:45;101890.97;;;18.45;41.92
85268;BME280;75677;52.380;4.876;2024-03-06T00:48:11;101891.34;;;18.43;41.89
85268;BME280;75677;52.380;4.876;2024-03-06T00:50:36;101903.78;;;18.42;41.79
85268;BME280;75677;52.380;4.876;2024-03-06T00:53:01;101890.56;;;18.36;41.93
85268;BME280;75677;52.380;4.876;2024-03-06T00:55:29;101902.97;;;18.42;41.98
85268;BME280;75677;52.380;4.876;2024-03-06T00:57:55;101899.38;;;18.41;41.70
85268;BME280;75677;52.380;4.876;2024-03-06T01:00:21;101901.34;;;18.41;41.88
85268;BME280;75677;52.380;4.876;2024-03-06T01:02:47;101893.72;;;18.34;41.93
85268;BME280;75677;52.380;4.876;2024-03-06T01:05:12;101898.56;;;18.41;41.95
85268;BME280;75677;52.380;4.876;2024-03-06T01:07:38;101899.75;;;18.40;41.76
85268;BME280;75677;52.380;4.876;2024-03-06T01:10:05;101903.78;;;18.42;41.60
85268;BME280;75677;52.380;4.876;2024-03-06T01:12:32;101898.56;;;18.41;42.16
85268;BME280;75677;52.380;4.876;2024-03-06T01:14:57;101896.16;;;18.39;41.84
85268;BME280;75677;52.380;4.876;2024-03-06T01:17:23;101903.75;;;18.39;41.93
85268;BME280;75677;52.380;4.876;2024-03-06T01:19:49;101903.75;;;18.39;41.96
85268;BME280;75677;52.380;4.876;2024-03-06T01:22:14;101912.16;;;18.39;41.90
85268;BME280;75677;52.380;4.876;2024-03-06T01:24:40;101913.34;;;18.38;41.72
85268;BME280;75677;52.380;4.876;2024-03-06T01:27:05;101908.09;;;18.33;41.93
85268;BME280;75677;52.380;4.876;2024-03-06T01:29:31;101918.94;;;18.38;41.93
85268;BME280;75677;52.380;4.876;2024-03-06T01:31:56;101916.94;;;18.35;42.11
85268;BME280;75677;52.380;4.876;2024-03-06T01:34:22;101911.72;;;18.33;41.80
85268;BME280;75677;52.380;4.876;2024-03-06T01:36:48;101916.94;;;18.35;41.91
85268;BME280;75677;52.380;4.876;2024-03-06T01:39:13;101914.53;;;18.37;42.09
85268;BME280;75677;52.380;4.876;2024-03-06T01:41:49;101912.16;;;18.35;41.93
85268;BME280;75677;52.380;4.876;2024-03-06T01:44:16;101916.53;;;18.36;42.01
85268;BME280;75677;52.380;4.876;2024-03-06T01:46:42;101917.75;;;18.35;41.73
85268;BME280;75677;52.380;4.876;2024-03-06T01:49:08;101914.94;;;18.35;41.93
85268;BME280;75677;52.380;4.876;2024-03-06T01:51:35;101914.94;;;18.32;41.96
85268;BME280;75677;52.380;4.876;2024-03-06T01:54:01;101913.72;;;18.33;42.07
85268;BME280;75677;52.380;4.876;2024-03-06T01:56:29;101917.75;;;18.35;41.93
85268;BME280;75677;52.380;4.876;2024-03-06T01:58:56;101922.91;;;18.33;41.87
85268;BME280;75677;52.380;4.876;2024-03-06T02:01:21;101922.09;;;18.33;42.12
85268;BME280;75677;52.380;4.876;2024-03-06T02:03:47;101922.53;;;18.31;41.86
85268;BME280;75677;52.380;4.876;2024-03-06T02:06:14;101918.09;;;18.27;42.22
85268;BME280;75677;52.380;4.876;2024-03-06T02:08:41;101922.09;;;18.33;42.01
85268;BME280;75677;52.380;4.876;2024-03-06T02:11:06;101924.91;;;18.33;42.02
85268;BME280;75677;52.380;4.876;2024-03-06T02:13:32;101932.13;;;18.34;42.00
85268;BME280;75677;52.380;4.876;2024-03-06T02:15:58;101929.72;;;18.32;41.95
85268;BME280;75677;52.380;4.876;2024-03-06T02:18:24;101932.53;;;18.32;42.05
85268;BME280;75677;52.380;4.876;2024-03-06T02:20:49;101928.50;;;18.33;41.90
85268;BME280;75677;52.380;4.876;2024-03-06T02:23:16;101933.69;;;18.28;42.09
85268;BME280;75677;52.380;4.876;2024-03-06T02:25:44;101936.50;;;18.31;41.96
85268;BME280;75677;52.380;4.876;2024-03-06T02:28:11;101934.09;;;18.30;42.03
85268;BME280;75677;52.380;4.876;2024-03-06T02:30:36;101936.88;;;18.26;42.04
85268;BME280;75677;52.380;4.876;2024-03-06T02:33:05;101947.31;;;18.29;42.19
85268;BME280;75677;52.380;4.876;2024-03-06T02:35:35;101944.09;;;18.31;42.13
85268;BME280;75677;52.380;4.876;2024-03-06T02:38:04;101938.91;;;18.29;42.02
85268;BME280;75677;52.380;4.876;2024-03-06T02:40:32;101944.91;;;18.31;42.02
85268;BME280;75677;52.380;4.876;2024-03-06T02:42:58;101929.69;;;18.22;42.19
85268;BME280;75677;52.380;4.876;2024-03-06T02:45:23;101943.72;;;18.29;42.16
85268;BME280;75677;52.380;4.876;2024-03-06T02:47:49;101946.50;;;18.29;42.16
85268;BME280;75677;52.380;4.876;2024-03-06T02:50:14;101947.31;;;18.29;42.05
85268;BME280;75677;52.380;4.876;2024-03-06T02:52:40;101944.53;;;18.29;42.16
85268;BME280;75677;52.380;4.876;2024-03-06T02:55:06;101936.50;;;18.28;42.23
85268;BME280;75677;52.380;4.876;2024-03-06T02:57:31;101934.09;;;18.30;42.19
85268;BME280;75677;52.380;4.876;2024-03-06T02:59:58;101934.88;;;18.27;42.14
85268;BME280;75677;52.380;4.876;2024-03-06T03:02:23;101935.69;;;18.27;42.04
85268;BME280;75677;52.380;4.876;2024-03-06T03:04:52;101940.09;;;18.28;42.20
85268;BME280;75677;52.380;4.876;2024-03-06T03:07:18;101929.69;;;18.25;42.13
85268;BME280;75677;52.380;4.876;2024-03-06T03:09:45;101931.69;;;18.25;42.20
85268;BME280;75677;52.380;4.876;2024-03-06T03:12:10;101936.09;;;18.26;42.22
85268;BME280;75677;52.380;4.876;2024-03-06T03:14:36;101937.66;;;18.23;42.26
85268;BME280;75677;52.380;4.876;2024-03-06T03:17:03;101939.69;;;18.23;42.21
85268;BME280;75677;52.380;4.876;2024-03-06T03:19:30;101943.25;;;18.23;42.42
85268;BME280;75677;52.380;4.876;2024-03-06T03:21:56;101945.28;;;18.26;42.18
85268;BME280;75677;52.380;4.876;2024-03-06T03:24:21;101947.69;;;18.24;42.20
85268;BME280;75677;52.380;4.876;2024-03-06T03:26:47;101957.25;;;18.23;42.18
85268;BME280;75677;52.380;4.876;2024-03-06T03:29:12;101952.09;;;18.25;42.06
85268;BME280;75677;52.380;4.876;2024-03-06T03:31:38;101952.47;;;18.24;42.17
85268;BME280;75677;52.380;4.876;2024-03-06T03:34:05;101955.69;;;18.26;42.10
85268;BME280;75677;52.380;4.876;2024-03-06T03:36:30;101949.28;;;18.22;42.05
85268;BME280;75677;52.380;4.876;2024-03-06T03:38:55;101949.28;;;18.25;42.22
85268;BME280;75677;52.380;4.876;2024-03-06T03:41:21;101953.69;;;18.23;42.19
85268;BME280;75677;52.380;4.876;2024-03-06T03:43:46;101954.47;;;18.23;42.16
85268;BME280;75677;52.380;4.876;2024-03-06T03:46:11;101950.88;;;18.23;42.34
85268;BME280;75677;52.380;4.876;2024-03-06T03:48:39;101947.63;;;18.17;42.22
85268;BME280;75677;52.380;4.876;2024-03-06T03:51:04;101950.47;;;18.21;42.00
85268;BME280;75677;52.380;4.876;2024-03-06T03:53:30;101954.06;;;18.21;42.14
85268;BME280;75677;52.380;4.876;2024-03-06T03:55:56;101965.66;;;18.23;42.12
85268;BME280;75677;52.380;4.876;2024-03-06T03:58:21;101959.66;;;18.21;42.10
85268;BME280;75677;52.380;4.876;2024-03-06T04:00:46;101956.84;;;18.21;42.20
85268;BME280;75677;52.380;4.876;2024-03-06T04:03:12;101958.47;;;18.19;42.28
85268;BME280;75677;52.380;4.876;2024-03-06T04:05:37;101954.44;;;18.16;42.29
85268;BME280;75677;52.380;4.876;2024-03-06T04:08:03;101955.66;;;18.19;42.08
85268;BME280;75677;52.380;4.876;2024-03-06T04:10:31;101960.44;;;18.18;42.29
85268;BME280;75677;52.380;4.876;2024-03-06T04:12:56;101958.81;;;18.14;42.31
85268;BME280;75677;52.380;4.876;2024-03-06T04:15:23;101960.81;;;18.17;42.24
85268;BME280;75677;52.380;4.876;2024-03-06T04:17:49;101960.81;;;18.17;42.21
85268;BME280;75677;52.380;4.876;2024-03-06T04:20:15;101964.84;;;18.19;42.19
85268;BME280;75677;52.380;4.876;2024-03-06T04:22:41;101966.03;;;18.18;42.30
85268;BME280;75677;52.380;4.876;2024-03-06T04:25:07;101961.66;;;18.21;42.25
85268;BME280;75677;52.380;4.876;2024-03-06T04:27:32;101966.41;;;18.17;42.25
85268;BME280;75677;52.380;4.876;2024-03-06T04:29:58;101968.84;;;18.18;42.28
85268;BME280;75677;52.380;4.876;2024-03-06T04:32:24;101968.84;;;18.18;42.41
85268;BME280;75677;52.380;4.876;2024-03-06T04:34:49;101972.44;;;18.19;42.03
85268;BME280;75677;52.380;4.876;2024-03-06T04:37:15;101980.41;;;18.17;42.28
85268;BME280;75677;52.380;4.876;2024-03-06T04:39:40;101980.44;;;18.20;42.14
85268;BME280;75677;52.380;4.876;2024-03-06T04:42:06;101982.03;;;18.18;42.19
85268;BME280;75677;52.380;4.876;2024-03-06T04:44:34;101982.81;;;18.15;42.26
85268;BME280;75677;52.380;4.876;2024-03-06T04:46:59;101990.44;;;18.18;42.12
85268;BME280;75677;52.380;4.876;2024-03-06T04:49:25;101992.41;;;18.17;42.17
85268;BME280;75677;52.380;4.876;2024-03-06T04:51:50;101998.81;;;18.14;42.41
85268;BME280;75677;52.380;4.876;2024-03-06T04:54:15;102002.44;;;18.18;42.24
85268;BME280;75677;52.380;4.876;2024-03-06T04:56:40;102011.19;;;18.17;42.40
85268;BME280;75677;52.380;4.876;2024-03-06T04:59:06;102004.81;;;18.16;42.34
85268;BME280;75677;52.380;4.876;2024-03-06T05:01:31;102014.81;;;18.17;42.64
85268;BME280;75677;52.380;4.876;2024-03-06T05:03:56;102000.38;;;18.12;42.24
85268;BME280;75677;52.380;4.876;2024-03-06T05:06:22;102005.19;;;18.11;42.30
85268;BME280;75677;52.380;4.876;2024-03-06T05:08:48;102015.22;;;18.16;42.31
85268;BME280;75677;52.380;4.876;2024-03-06T05:11:14;102001.19;;;18.08;42.25
85268;BME280;75677;52.380;4.876;2024-03-06T05:13:39;102018.78;;;18.13;42.32
85268;BME280;75677;52.380;4.876;2024-03-06T05:16:06;102024.78;;;18.15;42.12
85268;BME280;75677;52.380;4.876;2024-03-06T05:18:34;102023.19;;;18.14;42.24
85268;BME280;75677;52.380;4.876;2024-03-06T05:20:59;102017.59;;;18.14;42.26
85268;BME280;75677;52.380;4.876;2024-03-06T05:23:25;102023.97;;;18.11;42.42
85268;BME280;75677;52.380;4.876;2024-03-06T05:25:50;102012.34;;;18.05;42.24
85268;BME280;75677;52.380;4.876;2024-03-06T05:28:15;102023.16;;;18.10;42.20
85268;BME280;75677;52.380;4.876;2024-03-06T05:30:41;102028.38;;;18.12;42.36
85268;BME280;75677;52.380;4.876;2024-03-06T05:33:06;102029.19;;;18.12;42.38
85268;BME280;75677;52.380;4.876;2024-03-06T05:35:32;102035.59;;;18.13;42.51
85268;BME280;75677;52.380;4.876;2024-03-06T05:37:58;102037.16;;;18.14;42.57
85268;BME280;75677;52.380;4.876;2024-03-06T05:40:23;102043.19;;;18.12;42.34
85268;BME280;75677;52.380;4.876;2024-03-06T05:42:49;102040.38;;;18.12;42.45
85268;BME280;75677;52.380;4.876;2024-03-06T05:45:14;102035.56;;;18.09;42.29
85268;BME280;75677;52.380;4.876;2024-03-06T05:47:40;102039.56;;;18.12;42.34
85268;BME280;75677;52.380;4.876;2024-03-06T05:50:06;102046.78;;;18.13;42.54
85268;BME280;75677;52.380;4.876;2024-03-06T05:52:32;102047.97;;;18.12;42.32
85268;BME280;75677;52.380;4.876;2024-03-06T05:54:57;102051.94;;;18.11;42.44
85268;BME280;75677;52.380;4.876;2024-03-06T05:57:22;102051.94;;;18.11;42.30
85268;BME280;75677;52.380;4.876;2024-03-06T05:59:48;102046.31;;;18.07;42.45
85268;BME280;75677;52.380;4.876;2024-03-06T06:02:13;102060.34;;;18.11;42.42
85268;BME280;75677;52.380;4.876;2024-03-06T06:04:41;102054.72;;;18.07;42.13
85268;BME280;75677;52.380;4.876;2024-03-06T06:07:07;102064.34;;;18.10;42.38
85268;BME280;75677;52.380;4.876;2024-03-06T06:09:32;102072.31;;;18.07;42.43
85268;BME280;75677;52.380;4.876;2024-03-06T06:11:58;102058.72;;;18.06;42.53
85268;BME280;75677;52.380;4.876;2024-03-06T06:14:24;102069.50;;;18.07;42.34
85268;BME280;75677;52.380;4.876;2024-03-06T06:16:52;102067.91;;;18.06;42.31
85268;BME280;75677;52.380;4.876;2024-03-06T06:19:17;102080.34;;;18.09;42.41
85268;BME280;75677;52.380;4.876;2024-03-06T06:21:43;102079.53;;;18.08;42.45
85268;BME280;75677;52.380;4.876;2024-03-06T06:24:08;102084.72;;;18.10;42.45
85268;BME280;75677;52.380;4.876;2024-03-06T06:26:33;102091.53;;;18.09;42.45
85268;BME280;75677;52.380;4.876;2024-03-06T06:28:59;102102.72;;;18.09;42.42
85268;BME280;75677;52.380;4.876;2024-03-06T06:31:24;102095.84;;;18.03;42.39
85268;BME280;75677;52.380;4.876;2024-03-06T06:33:51;102109.13;;;18.10;42.36
85268;BME280;75677;52.380;4.876;2024-03-06T06:36:17;102116.69;;;18.05;42.41
85268;BME280;75677;52.380;4.876;2024-03-06T06:38:43;102117.09;;;18.07;42.43
85268;BME280;75677;52.380;4.876;2024-03-06T06:41:13;102115.91;;;18.08;42.47
85268;BME280;75677;52.380;4.876;2024-03-06T06:43:38;102119.06;;;18.07;42.39
85268;BME280;75677;52.380;4.876;2024-03-06T06:46:04;102125.47;;;18.07;42.31
85268;BME280;75677;52.380;4.876;2024-03-06T06:48:31;102131.47;;;18.06;42.53
85268;BME280;75677;52.380;4.876;2024-03-06T06:50:57;102130.72;;;18.09;42.42
85268;BME280;75677;52.380;4.876;2024-03-06T06:53:22;102136.69;;;18.07;42.30
85268;BME280;75677;52.380;4.876;2024-03-06T06:55:47;102141.91;;;18.09;42.38
85268;BME280;75677;52.380;4.876;2024-03-06T06:58:13;102150.28;;;18.09;42.54
85268;BME280;75677;52.380;4.876;2024-03-06T07:00:38;102145.06;;;18.07;42.55
85268;BME280;75677;52.380;4.876;2024-03-06T07:03:04;102151.09;;;18.10;42.45
85268;BME280;75677;52.380;4.876;2024-03-06T07:05:30;102153.09;;;18.09;42.58
85268;BME280;75677;52.380;4.876;2024-03-06T07:07:55;102151.09;;;18.10;42.55
85268;BME280;75677;52.380;4.876;2024-03-06T07:10:21;102151.88;;;18.10;42.71
85268;BME280;75677;52.380;4.876;2024-03-06T07:12:46;102157.09;;;18.12;42.88
85268;BME280;75677;52.380;4.876;2024-03-06T07:15:12;102154.34;;;18.15;42.78
85268;BME280;75677;52.380;4.876;2024-03-06T07:17:37;102162.34;;;18.17;42.84
85268;BME280;75677;52.380;4.876;2024-03-06T07:20:03;102162.34;;;18.17;42.67
85268;BME280;75677;52.380;4.876;2024-03-06T07:22:30;102169.94;;;18.16;42.78
85268;BME280;75677;52.380;4.876;2024-03-06T07:24:56;102162.75;;;18.15;42.72
85268;BME280;75677;52.380;4.876;2024-03-06T07:27:21;102169.16;;;18.16;42.71
85268;BME280;75677;52.380;4.876;2024-03-06T07:29:47;102169.50;;;18.14;42.65
85268;BME280;75677;52.380;4.876;2024-03-06T07:32:12;102179.13;;;18.17;42.62
85268;BME280;75677;52.380;4.876;2024-03-06T07:34:38;102179.13;;;18.17;42.56
85268;BME280;75677;52.380;4.876;2024-03-06T07:37:03;102180.34;;;18.16;42.40
85268;BME280;75677;52.380;4.876;2024-03-06T07:39:29;102184.75;;;18.20;42.60
85268;BME280;75677;52.380;4.876;2024-03-06T07:41:56;102183.94;;;18.16;42.42
85268;BME280;75677;52.380;4.876;2024-03-06T07:44:22;102190.81;;;18.26;42.18
85268;BME280;75677;52.380;4.876;2024-03-06T07:46:47;102193.63;;;18.26;42.41
85268;BME280;75677;52.380;4.876;2024-03-06T07:49:13;102209.69;;;18.32;42.53
85268;BME280;75677;52.380;4.876;2024-03-06T07:51:39;102195.69;;;18.32;42.78
85268;BME280;75677;52.380;4.876;2024-03-06T07:54:06;102201.63;;;18.27;42.71
85268;BME280;75677;52.380;4.876;2024-03-06T07:56:31;102212.47;;;18.32;42.56
85268;BME280;75677;52.380;4.876;2024-03-06T07:58:56;102220.47;;;18.34;42.71
85268;BME280;75677;52.380;4.876;2024-03-06T08:01:23;102212.84;;;18.31;42.40
85268;BME280;75677;52.380;4.876;2024-03-06T08:03:48;102215.28;;;18.32;42.45
85268;BME280;75677;52.380;4.876;2024-03-06T08:06:14;102222.88;;;18.32;42.36
85268;BME280;75677;52.380;4.876;2024-03-06T08:08:43;102226.03;;;18.30;42.42
85268;BME280;75677;52.380;4.876;2024-03-06T08:11:10;102218.44;;;18.31;42.31
85268;BME280;75677;52.380;4.876;2024-03-06T08:13:36;102216.47;;;18.31;42.22
85268;BME280;75677;52.380;4.876;2024-03-06T08:16:01;102217.56;;;18.23;42.20
85268;BME280;75677;52.380;4.876;2024-03-06T08:18:27;102229.66;;;18.31;41.97
85268;BME280;75677;52.380;4.876;2024-03-06T08:20:52;102226.44;;;18.29;42.23
85268;BME280;75677;52.380;4.876;2024-03-06T08:23:18;102229.66;;;18.31;42.54
85268;BME280;75677;52.380;4.876;2024-03-06T08:25:43;102229.28;;;18.32;42.51
85268;BME280;75677;52.380;4.876;2024-03-06T08:28:09;102238.09;;;18.34;42.70
85268;BME280;75677;52.380;4.876;2024-03-06T08:30:35;102232.84;;;18.33;42.27
85268;BME280;75677;52.380;4.876;2024-03-06T08:33:00;102257.31;;;18.36;42.23
85268;BME280;75677;52.380;4.876;2024-03-06T08:35:26;102250.47;;;18.33;42.49
85268;BME280;75677;52.380;4.876;2024-03-06T08:37:51;102259.69;;;18.37;42.17
85268;BME280;75677;52.380;4.876;2024-03-06T08:40:17;102262.94;;;18.39;42.41
85268;BME280;75677;52.380;4.876;2024-03-06T08:42:49;102261.34;;;18.42;42.55
85268;BME280;75677;52.380;4.876;2024-03-06T08:45:18;102258.97;;;18.44;42.38
85268;BME280;75677;52.380;4.876;2024-03-06T08:47:47;102250.91;;;18.35;42.59
85268;BME280;75677;52.380;4.876;2024-03-06T08:50:13;102262.94;;;18.43;42.78
85268;BME280;75677;52.380;4.876;2024-03-06T08:52:39;102279.00;;;18.46;42.38
85268;BME280;75677;52.380;4.876;2024-03-06T08:55:06;102279.84;;;18.50;42.64
85268;BME280;75677;52.380;4.876;2024-03-06T08:57:33;102281.47;;;18.51;42.63
85268;BME280;75677;52.380;4.876;2024-03-06T08:59:59;102282.28;;;18.51;42.51
85268;BME280;75677;52.380;4.876;2024-03-06T09:02:24;102268.53;;;18.43;42.29
85268;BME280;75677;52.380;4.876;2024-03-06T09:04:51;102277.88;;;18.54;42.53
85268;BME280;75677;52.380;4.876;2024-03-06T09:07:20;102277.03;;;18.50;42.73
85268;BME280;75677;52.380;4.876;2024-03-06T09:09:49;102277.84;;;18.50;42.65
85268;BME280;75677;52.380;4.876;2024-03-06T09:12:14;102281.47;;;18.51;42.50
85268;BME280;75677;52.380;4.876;2024-03-06T09:14:40;102290.72;;;18.55;42.31
85268;BME280;75677;52.380;4.876;2024-03-06T09:17:06;102285.91;;;18.55;42.27
85268;BME280;75677;52.380;4.876;2024-03-06T09:19:34;102290.31;;;18.56;42.42
85268;BME280;75677;52.380;4.876;2024-03-06T09:22:00;102297.53;;;18.57;42.21
85268;BME280;75677;52.380;4.876;2024-03-06T09:24:26;102293.53;;;18.58;42.29
85268;BME280;75677;52.380;4.876;2024-03-06T09:26:52;102295.13;;;18.59;42.32
85268;BME280;75677;52.380;4.876;2024-03-06T09:29:18;102295.13;;;18.59;42.29
85268;BME280;75677;52.380;4.876;2024-03-06T09:31:43;102287.09;;;18.54;42.20
85268;BME280;75677;52.380;4.876;2024-03-06T09:34:09;102308.03;;;18.68;42.25
85268;BME280;75677;52.380;4.876;2024-03-06T09:36:39;102312.06;;;18.74;41.80
85268;BME280;75677;52.380;4.876;2024-03-06T09:39:04;102308.09;;;18.78;42.08
85268;BME280;75677;52.380;4.876;2024-03-06T09:41:30;102304.91;;;18.80;41.94
85268;BME280;75677;52.380;4.876;2024-03-06T09:43:56;102314.22;;;18.91;41.85
85268;BME280;75677;52.380;4.876;2024-03-06T09:46:21;102320.25;;;18.96;41.75
85268;BME280;75677;52.380;4.876;2024-03-06T09:48:48;102323.09;;;19.00;41.91
85268;BME280;75677;52.380;4.876;2024-03-06T09:51:14;102328.72;;;19.03;41.95
85268;BME280;75677;52.380;4.876;2024-03-06T09:53:40;102325.53;;;19.05;41.55
85268;BME280;75677;52.380;4.876;2024-03-06T09:56:08;102324.34;;;19.09;41.96
85268;BME280;75677;52.380;4.876;2024-03-06T09:58:35;102335.22;;;19.15;41.57
85268;BME280;75677;52.380;4.876;2024-03-06T10:01:01;102335.25;;;19.18;41.71
85268;BME280;75677;52.380;4.876;2024-03-06T10:03:28;102329.59;;;19.15;41.46
85268;BME280;75677;52.380;4.876;2024-03-06T10:05:54;102336.47;;;19.24;41.51
85268;BME280;75677;52.380;4.876;2024-03-06T10:08:21;102338.88;;;19.26;41.41
85268;BME280;75677;52.380;4.876;2024-03-06T10:10:48;102332.47;;;19.22;41.58
85268;BME280;75677;52.380;4.876;2024-03-06T10:13:16;102338.09;;;19.25;41.32
85268;BME280;75677;52.380;4.876;2024-03-06T10:15:42;102348.13;;;19.30;41.12
85268;BME280;75677;52.380;4.876;2024-03-06T10:18:20;102341.34;;;19.31;41.37
85268;BME280;75677;52.380;4.876;2024-03-06T10:20:45;102350.16;;;19.33;41.09
85268;BME280;75677;52.380;4.876;2024-03-06T10:23:11;102342.94;;;19.32;40.93
85268;BME280;75677;52.380;4.876;2024-03-06T10:25:36;102349.75;;;19.31;41.07
85268;BME280;75677;52.380;4.876;2024-03-06T10:28:06;102356.56;;;19.33;41.07
85268;BME280;75677;52.380;4.876;2024-03-06T10:30:37;102354.56;;;19.34;41.08
85268;BME280;75677;52.380;4.876;2024-03-06T10:33:03;102346.13;;;19.30;41.02
85268;BME280;75677;52.380;4.876;2024-03-06T10:35:29;102332.03;;;19.20;40.91
85268;BME280;75677;52.380;4.876;2024-03-06T10:37:55;102359.78;;;19.32;40.84
85268;BME280;75677;52.380;4.876;2024-03-06T10:40:21;102358.53;;;19.29;40.68
85268;BME280;75677;52.380;4.876;2024-03-06T10:42:48;102358.53;;;19.29;40.48
85268;BME280;75677;52.380;4.876;2024-03-06T10:45:14;102358.13;;;19.27;40.65
85268;BME280;75677;52.380;4.876;2024-03-06T10:47:46;102358.53;;;19.29;40.56
85268;BME280;75677;52.380;4.876;2024-03-06T10:50:15;102357.31;;;19.27;40.96
85268;BME280;75677;52.380;4.876;2024-03-06T10:52:40;102362.16;;;19.33;40.57
85268;BME280;75677;52.380;4.876;2024-03-06T10:55:07;102366.97;;;19.33;40.82
85268;BME280;75677;52.380;4.876;2024-03-06T10:57:34;102366.16;;;19.32;40.39
85268;BME280;75677;52.380;4.876;2024-03-06T11:00:01;102367.78;;;19.33;40.84
85268;BME280;75677;52.380;4.876;2024-03-06T11:02:27;102375.00;;;19.34;40.60
85268;BME280;75677;52.380;4.876;2024-03-06T11:04:53;102364.94;;;19.30;40.56
85268;BME280;75677;52.380;4.876;2024-03-06T11:07:18;102372.59;;;19.36;40.63
85268;BME280;75677;52.380;4.876;2024-03-06T11:09:44;102378.19;;;19.33;40.27
85268;BME280;75677;52.380;4.876;2024-03-06T11:12:11;102373.38;;;19.33;40.72
85268;BME280;75677;52.380;4.876;2024-03-06T11:14:38;102377.03;;;19.37;40.36
85268;BME280;75677;52.380;4.876;2024-03-06T11:17:04;102380.63;;;19.38;40.72
85268;BME280;75677;52.380;4.876;2024-03-06T11:19:31;102382.69;;;19.41;40.44
85268;BME280;75677;52.380;4.876;2024-03-06T11:21:57;102380.28;;;19.43;41.01
85268;BME280;75677;52.380;4.876;2024-03-06T11:24:24;102387.16;;;19.45;41.04
85268;BME280;75677;52.380;4.876;2024-03-06T11:26:59;102369.00;;;19.36;41.97
85268;BME280;75677;52.380;4.876;2024-03-06T11:29:27;102385.97;;;19.53;42.83
85268;BME280;75677;52.380;4.876;2024-03-06T11:34:25;102391.22;;;19.58;42.71
85268;BME280;75677;52.380;4.876;2024-03-06T11:36:55;102394.84;;;19.63;42.99
85268;BME280;75677;52.380;4.876;2024-03-06T11:39:21;102386.84;;;19.65;43.81
85268;BME280;75677;52.380;4.876;2024-03-06T11:41:49;102389.25;;;19.66;43.59
85268;BME280;75677;52.380;4.876;2024-03-06T11:44:19;102390.47;;;19.65;42.85
85268;BME280;75677;52.380;4.876;2024-03-06T11:49:22;102394.09;;;19.73;42.12
85268;BME280;75677;52.380;4.876;2024-03-06T11:51:54;102397.34;;;19.75;42.64
85268;BME280;75677;52.380;4.876;2024-03-06T11:54:20;102396.91;;;19.73;42.62
85268;BME280;75677;52.380;4.876;2024-03-06T11:56:50;102403.34;;;19.77;43.07
85268;BME280;75677;52.380;4.876;2024-03-06T11:59:17;102394.13;;;19.76;42.21
85268;BME280;75677;52.380;4.876;2024-03-06T12:01:43;102398.56;;;19.77;43.36
85268;BME280;75677;52.380;4.876;2024-03-06T12:04:08;102402.97;;;19.78;42.63
85268;BME280;75677;52.380;4.876;2024-03-06T12:06:33;102401.75;;;19.79;41.67
85268;BME280;75677;52.380;4.876;2024-03-06T12:08:59;102398.16;;;19.75;40.97
85268;BME280;75677;52.380;4.876;2024-03-06T12:11:25;102394.09;;;19.73;41.42
85268;BME280;75677;52.380;4.876;2024-03-06T12:13:54;102406.56;;;19.75;40.89
85268;BME280;75677;52.380;4.876;2024-03-06T12:16:21;102351.84;;;19.41;40.98
85268;BME280;75677;52.380;4.876;2024-03-06T12:18:46;102400.53;;;19.73;40.74
85268;BME280;75677;52.380;4.876;2024-03-06T12:21:12;102406.13;;;19.73;40.77
85268;BME280;75677;52.380;4.876;2024-03-06T12:23:39;102405.72;;;19.71;40.97
85268;BME280;75677;52.380;4.876;2024-03-06T12:26:08;102401.28;;;19.67;40.65
85268;BME280;75677;52.380;4.876;2024-03-06T12:28:37;102397.66;;;19.66;40.60
85268;BME280;75677;52.380;4.876;2024-03-06T12:31:04;102407.31;;;19.69;40.94
85268;BME280;75677;52.380;4.876;2024-03-06T12:33:30;102409.31;;;19.68;40.77
85268;BME280;75677;52.380;4.876;2024-03-06T12:36:14;102407.72;;;19.67;40.50
85268;BME280;75677;52.380;4.876;2024-03-06T12:38:39;102409.31;;;19.68;41.05
85268;BME280;75677;52.380;4.876;2024-03-06T12:41:05;102404.50;;;19.65;40.66
85268;BME280;75677;52.380;4.876;2024-03-06T12:43:31;102407.72;;;19.67;41.09
85268;BME280;75677;52.380;4.876;2024-03-06T12:45:58;102410.13;;;19.65;40.49
85268;BME280;75677;52.380;4.876;2024-03-06T12:48:24;102404.06;;;19.63;41.17
85268;BME280;75677;52.380;4.876;2024-03-06T12:50:51;102409.69;;;19.63;40.52